createdAt,value
2023-02-08T00:01:06.449Z,25.45
2023-02-08T00:03:33.570Z,31.23
2023-02-08T00:06:00.687Z,26.23
2023-02-08T00:08:27.720Z,27.95
2023-02-08T00:10:54.880Z,23.88
2023-02-08T00:13:21.907Z,26.30
2023-02-08T00:15:49.078Z,26.55
2023-02-08T00:18:16.141Z,26.25
2023-02-08T00:20:44.215Z,28.67
2023-02-08T00:23:12.638Z,25.10
2023-02-08T00:25:40.745Z,27.70
2023-02-08T00:28:12.018Z,24.75
2023-02-08T00:30:39.707Z,27.50
2023-02-08T00:33:06.971Z,27.85
2023-02-08T00:35:34.008Z,27.70
2023-02-08T00:38:01.083Z,27.17
2023-02-08T00:40:28.459Z,24.77
2023-02-08T00:42:56.128Z,28.15
2023-02-08T00:45:23.839Z,22.95
2023-02-08T00:47:50.987Z,25.27
2023-02-08T00:50:18.078Z,26.02
2023-02-08T00:52:45.203Z,24.17
2023-02-08T00:55:12.247Z,27.23
2023-02-08T00:57:39.267Z,24.95
2023-02-08T01:00:07.882Z,25.33
2023-02-08T01:02:35.469Z,28.90
2023-02-08T01:05:02.449Z,27.77
2023-02-08T01:07:29.595Z,27.70
2023-02-08T01:09:56.945Z,26.02
2023-02-08T01:12:25.123Z,29.08
2023-02-08T01:14:52.193Z,27.42
2023-02-08T01:17:19.183Z,25.80
2023-02-08T01:19:46.205Z,32.83
2023-02-08T01:22:13.200Z,32.25
2023-02-08T01:24:40.279Z,30.10
2023-02-08T01:27:07.355Z,34.70
2023-02-08T01:29:34.483Z,32.95
2023-02-08T01:32:01.564Z,30.92
2023-02-08T01:34:28.685Z,38.53
2023-02-08T01:36:55.656Z,32.45
2023-02-08T01:39:22.786Z,34.25
2023-02-08T01:41:49.970Z,31.50
2023-02-08T01:44:19.628Z,28.75
2023-02-08T01:46:51.222Z,28.42
2023-02-08T01:49:28.293Z,31.17
2023-02-08T01:52:14.233Z,29.75
2023-02-08T01:55:06.004Z,28.10
2023-02-08T01:57:33.250Z,24.48
2023-02-08T02:00:14.153Z,28.25
2023-02-08T02:02:42.437Z,26.50
2023-02-08T02:05:09.869Z,28.98
2023-02-08T02:07:37.177Z,28.80
2023-02-08T02:10:16.985Z,26.95
2023-02-08T02:12:45.499Z,26.33
2023-02-08T02:15:12.649Z,27.05
2023-02-08T02:17:40.571Z,26.52
2023-02-08T02:20:07.567Z,23.17
2023-02-08T02:22:52.168Z,27.17
2023-02-08T02:25:31.084Z,26.38
2023-02-08T02:28:16.408Z,26.90
2023-02-08T02:31:02.144Z,23.50
2023-02-08T02:34:01.179Z,26.13
2023-02-08T02:36:45.208Z,30.45
2023-02-08T02:39:15.329Z,26.95
2023-02-08T02:42:07.277Z,25.77
2023-02-08T02:45:07.524Z,27.67
2023-02-08T02:47:53.010Z,26.35
2023-02-08T02:50:49.383Z,26.13
2023-02-08T02:53:45.085Z,25.70
2023-02-08T02:56:40.671Z,26.15
2023-02-08T02:59:10.300Z,29.30
2023-02-08T03:01:38.682Z,27.15
2023-02-08T03:04:39.295Z,24.08
2023-02-08T03:07:18.092Z,22.48
2023-02-08T03:09:53.917Z,28.35
2023-02-08T03:12:59.502Z,26.02
2023-02-08T03:15:50.382Z,24.25
2023-02-08T03:18:39.139Z,30.45
2023-02-08T03:21:27.099Z,28.67
2023-02-08T03:24:09.165Z,31.52
2023-02-08T03:26:43.539Z,31.50
2023-02-08T03:29:37.492Z,31.23
2023-02-08T03:34:51.953Z,28.67
2023-02-08T03:37:28.081Z,27.38
2023-02-08T03:40:10.661Z,24.10
2023-02-08T03:42:39.043Z,26.55
2023-02-08T03:45:23.022Z,27.60
2023-02-08T03:47:53.400Z,26.92
2023-02-08T03:50:23.392Z,28.70
2023-02-08T03:52:52.429Z,26.38
2023-02-08T03:55:27.772Z,27.45
2023-02-08T03:58:38.009Z,28.75
2023-02-08T04:01:20.279Z,26.45
2023-02-08T04:03:50.344Z,27.55
2023-02-08T04:06:18.006Z,43.67
2023-02-08T04:08:45.112Z,44.50
2023-02-08T04:11:12.448Z,39.22
2023-02-08T04:13:39.477Z,41.92
2023-02-08T04:16:07.036Z,42.65
2023-02-08T04:18:34.178Z,40.30
2023-02-08T04:21:01.325Z,40.83
2023-02-08T04:23:28.361Z,45.50
2023-02-08T04:25:55.481Z,36.15
2023-02-08T04:28:22.680Z,41.70
2023-02-08T04:30:49.820Z,45.28
2023-02-08T04:33:16.954Z,40.45
2023-02-08T04:35:44.171Z,34.00
2023-02-08T04:38:11.292Z,35.30
2023-02-08T04:40:38.585Z,32.90
2023-02-08T04:43:05.679Z,43.53
2023-02-08T04:45:33.196Z,76.85
2023-02-08T04:48:04.124Z,63.42
2023-02-08T04:50:31.418Z,58.35
2023-02-08T04:52:58.633Z,41.45
2023-02-08T04:55:25.992Z,35.53
2023-02-08T04:57:52.979Z,35.05
2023-02-08T05:00:20.209Z,30.73
2023-02-08T05:02:47.883Z,30.63
2023-02-08T05:05:15.102Z,33.58
2023-02-08T05:07:42.103Z,32.50
2023-02-08T05:10:09.410Z,34.40
2023-02-08T05:12:36.583Z,32.63
2023-02-08T05:15:04.231Z,31.38
2023-02-08T05:17:31.337Z,61.70
2023-02-08T05:19:58.431Z,81.28
2023-02-08T05:22:25.491Z,92.05
2023-02-08T05:24:52.632Z,113.45
2023-02-08T05:27:19.675Z,107.95
2023-02-08T05:29:46.825Z,121.15
2023-02-08T05:32:14.027Z,124.13
2023-02-08T05:34:41.129Z,112.63
2023-02-08T05:37:08.180Z,102.22
2023-02-08T05:39:35.286Z,99.60
2023-02-08T05:42:02.401Z,107.40
2023-02-08T05:44:29.534Z,103.60
2023-02-08T05:46:56.633Z,92.97
2023-02-08T05:49:23.911Z,93.28
2023-02-08T05:51:51.089Z,71.07
2023-02-08T05:54:18.685Z,81.47
2023-02-08T05:56:45.832Z,93.07
2023-02-08T05:59:12.970Z,92.78
2023-02-08T06:01:40.154Z,87.05
2023-02-08T06:04:07.262Z,78.25
2023-02-08T06:06:34.366Z,72.40
2023-02-08T06:09:01.631Z,63.40
2023-02-08T06:11:28.754Z,64.57
2023-02-08T06:13:56.031Z,55.67
2023-02-08T06:16:23.162Z,57.90
2023-02-08T06:18:50.258Z,51.85
2023-02-08T06:21:17.438Z,62.42
2023-02-08T06:23:45.021Z,57.67
2023-02-08T06:26:12.089Z,61.20
2023-02-08T06:28:39.303Z,54.78
2023-02-08T06:31:06.461Z,57.30
2023-02-08T06:33:33.658Z,53.22
2023-02-08T06:36:00.663Z,57.70
2023-02-08T06:38:27.768Z,58.13
2023-02-08T06:40:55.031Z,69.57
2023-02-08T06:43:22.050Z,63.42
2023-02-08T06:45:49.208Z,62.58
2023-02-08T06:48:16.452Z,62.25
2023-02-08T06:50:43.911Z,63.83
2023-02-08T06:53:11.096Z,56.80
2023-02-08T06:55:39.204Z,55.90
2023-02-08T06:58:06.353Z,59.85
2023-02-08T07:00:34.658Z,60.08
2023-02-08T07:03:01.862Z,58.88
2023-02-08T07:05:28.906Z,59.60
2023-02-08T07:07:55.929Z,58.75
2023-02-08T07:10:23.106Z,54.65
2023-02-08T07:12:50.163Z,52.63
2023-02-08T07:15:17.424Z,55.50
2023-02-08T07:17:44.681Z,55.50
2023-02-08T07:20:12.539Z,54.53
2023-02-08T07:22:40.757Z,54.70
2023-02-08T07:25:09.227Z,57.95
2023-02-08T07:27:36.374Z,53.33
2023-02-08T07:30:04.186Z,63.72
2023-02-08T07:32:33.165Z,52.80
2023-02-08T07:35:01.720Z,56.55
2023-02-08T07:37:29.136Z,52.00
2023-02-08T07:39:56.692Z,52.88
2023-02-08T07:42:23.857Z,53.22
2023-02-08T07:44:51.002Z,50.92
2023-02-08T07:47:18.147Z,62.70
2023-02-08T07:49:45.296Z,58.42
2023-02-08T07:52:12.417Z,59.35
2023-02-08T07:54:39.584Z,63.95
2023-02-08T07:57:06.729Z,67.80
2023-02-08T07:59:33.749Z,80.90
2023-02-08T08:02:00.904Z,91.88
2023-02-08T08:04:27.972Z,91.50
2023-02-08T08:06:55.044Z,88.80
2023-02-08T08:09:22.302Z,86.93
2023-02-08T08:11:49.474Z,84.50
2023-02-08T08:14:16.564Z,81.10
2023-02-08T08:16:43.980Z,81.68
2023-02-08T08:19:11.195Z,78.72
2023-02-08T08:21:38.878Z,75.22
2023-02-08T08:24:06.425Z,67.10
2023-02-08T08:26:33.606Z,66.15
2023-02-08T08:29:01.063Z,61.38
2023-02-08T08:31:28.538Z,61.70
2023-02-08T08:33:56.077Z,57.50
2023-02-08T08:36:23.142Z,58.60
2023-02-08T08:38:50.308Z,62.13
2023-02-08T08:41:18.911Z,57.03
2023-02-08T08:43:46.177Z,45.78
2023-02-08T08:46:13.430Z,57.53
2023-02-08T08:48:40.668Z,57.28
2023-02-08T08:51:08.240Z,47.78
2023-02-08T08:53:37.106Z,49.67
2023-02-08T08:56:05.011Z,49.35
2023-02-08T08:58:32.203Z,39.13
2023-02-08T09:01:00.596Z,37.50
2023-02-08T09:03:28.985Z,47.42
2023-02-08T09:05:56.541Z,43.92
2023-02-08T09:08:23.698Z,41.78
2023-02-08T09:10:51.019Z,42.40
2023-02-08T09:13:21.954Z,38.67
2023-02-08T09:15:49.749Z,45.15
2023-02-08T09:18:17.211Z,50.75
2023-02-08T09:20:44.728Z,58.88
2023-02-08T09:23:12.949Z,60.85
2023-02-08T09:25:40.352Z,66.07
2023-02-08T09:28:07.788Z,65.80
2023-02-08T09:30:36.850Z,67.90
2023-02-08T09:33:03.970Z,70.03
2023-02-08T09:35:31.359Z,67.63
2023-02-08T09:38:02.639Z,66.97
2023-02-08T09:40:45.828Z,64.05
2023-02-08T09:43:22.236Z,50.53
2023-02-08T09:46:00.758Z,54.13
2023-02-08T09:48:39.389Z,53.80
2023-02-08T09:51:31.197Z,54.88
2023-02-08T09:54:15.300Z,46.33
2023-02-08T09:56:45.043Z,38.13
2023-02-08T09:59:39.656Z,41.92
2023-02-08T10:02:29.584Z,42.30
2023-02-08T10:05:05.646Z,38.80
2023-02-08T10:07:34.892Z,52.53
2023-02-08T10:10:05.417Z,44.85
2023-02-08T10:12:44.377Z,46.67
2023-02-08T10:15:14.618Z,50.80
2023-02-08T10:17:58.207Z,54.97
2023-02-08T10:23:35.619Z,47.47
2023-02-08T10:26:31.589Z,40.90
2023-02-08T10:29:04.921Z,43.08
2023-02-08T10:34:20.941Z,46.78
2023-02-08T10:36:48.289Z,41.75
2023-02-08T10:39:19.003Z,46.30
2023-02-08T10:41:49.545Z,38.08
2023-02-08T10:44:42.103Z,36.10
2023-02-08T10:47:25.286Z,36.20
2023-02-08T10:50:02.791Z,38.22
2023-02-08T10:52:30.172Z,41.40
2023-02-08T10:55:05.183Z,46.03
2023-02-08T10:57:35.507Z,50.90
2023-02-08T11:00:17.740Z,38.53
2023-02-08T11:02:49.850Z,36.28
2023-02-08T11:05:31.409Z,40.72
2023-02-08T11:08:25.764Z,44.65
2023-02-08T11:11:12.929Z,45.90
2023-02-08T11:13:51.660Z,38.50
2023-02-08T11:16:38.795Z,36.58
2023-02-08T11:19:12.833Z,35.75
2023-02-08T11:21:45.876Z,38.67
2023-02-08T11:24:18.766Z,40.42
2023-02-08T11:26:49.648Z,40.28
2023-02-08T11:29:35.546Z,40.92
2023-02-08T11:35:27.496Z,35.47
2023-02-08T11:37:57.581Z,35.53
2023-02-08T11:40:36.798Z,38.67
2023-02-08T11:43:07.438Z,35.53
2023-02-08T11:45:48.493Z,35.92
2023-02-08T11:48:31.933Z,37.70
2023-02-08T11:51:03.625Z,36.58
2023-02-08T11:53:36.697Z,37.70
2023-02-08T11:56:03.723Z,38.97
2023-02-08T11:58:31.701Z,34.70
2023-02-08T12:01:20.722Z,36.88
2023-02-08T12:03:50.852Z,39.90
2023-02-08T12:06:30.692Z,36.70
2023-02-08T12:09:07.987Z,38.28
2023-02-08T12:11:45.787Z,35.08
2023-02-08T12:14:47.710Z,37.90
2023-02-08T12:17:59.561Z,36.20
2023-02-08T12:20:42.534Z,37.63
2023-02-08T12:23:36.006Z,40.45
2023-02-08T12:26:18.532Z,39.72
2023-02-08T12:29:03.758Z,41.78
2023-02-08T12:31:51.967Z,40.72
2023-02-08T12:34:34.238Z,37.10
2023-02-08T12:37:45.100Z,35.92
2023-02-08T12:40:45.886Z,38.05
2023-02-08T12:43:34.527Z,39.50
2023-02-08T12:46:14.362Z,34.10
2023-02-08T12:49:00.087Z,33.22
2023-02-08T12:51:48.570Z,42.85
2023-02-08T12:54:55.847Z,36.90
2023-02-08T12:57:26.714Z,36.53
2023-02-08T13:00:03.836Z,36.97
2023-02-08T13:02:57.745Z,36.40
2023-02-08T13:08:30.694Z,31.77
2023-02-08T13:11:19.755Z,35.88
2023-02-08T13:13:57.835Z,35.10
2023-02-08T13:16:30.200Z,34.08
2023-02-08T13:19:23.110Z,33.78
2023-02-08T13:21:52.574Z,31.45
2023-02-08T13:24:31.876Z,37.28
2023-02-08T13:26:59.096Z,34.35
2023-02-08T13:29:28.384Z,28.33
2023-02-08T13:32:14.983Z,36.58
2023-02-08T13:35:05.352Z,28.55
2023-02-08T13:37:35.237Z,36.92
2023-02-08T13:40:11.115Z,27.88
2023-02-08T13:42:44.036Z,33.83
2023-02-08T13:45:25.397Z,33.15
2023-02-08T13:48:04.869Z,39.30
2023-02-08T13:50:56.963Z,39.72
2023-02-08T13:53:39.062Z,34.50
2023-02-08T13:56:10.321Z,38.58
2023-02-08T13:58:46.405Z,35.10
2023-02-08T14:01:21.397Z,34.60
2023-02-08T14:04:07.332Z,36.20
2023-02-08T14:06:55.998Z,37.88
2023-02-08T14:09:27.751Z,37.72
2023-02-08T14:12:07.195Z,39.70
2023-02-08T14:14:38.760Z,36.85
2023-02-08T14:17:32.001Z,38.17
2023-02-08T14:20:07.702Z,42.28
2023-02-08T14:22:48.092Z,42.22
2023-02-08T14:25:21.686Z,42.15
2023-02-08T14:28:02.554Z,39.63
2023-02-08T14:30:33.832Z,40.13
2023-02-08T14:33:03.747Z,43.97
2023-02-08T14:35:34.307Z,42.35
2023-02-08T14:38:19.627Z,45.22
2023-02-08T14:41:01.277Z,45.97
2023-02-08T14:43:30.765Z,46.75
2023-02-08T14:45:58.306Z,50.63
2023-02-08T14:48:42.400Z,46.65
2023-02-08T14:51:12.473Z,42.65
2023-02-08T14:53:42.319Z,50.55
2023-02-08T14:56:31.185Z,48.83
2023-02-08T14:59:00.448Z,47.72
2023-02-08T15:01:27.449Z,47.33
2023-02-08T15:03:59.697Z,51.00
2023-02-08T15:06:37.707Z,49.65
2023-02-08T15:09:26.991Z,49.67
2023-02-08T15:12:00.079Z,49.95
2023-02-08T15:14:27.814Z,47.60
2023-02-08T15:16:56.199Z,45.80
2023-02-08T15:19:28.275Z,46.80
2023-02-08T15:21:55.855Z,45.50
2023-02-08T15:24:29.861Z,49.63
2023-02-08T15:26:58.136Z,51.65
2023-02-08T15:29:42.950Z,52.50
2023-02-08T15:32:17.960Z,51.00
2023-02-08T15:34:48.389Z,48.20
2023-02-08T15:37:19.456Z,46.85
2023-02-08T15:40:02.750Z,52.45
2023-02-08T15:42:38.654Z,50.88
2023-02-08T15:45:34.022Z,45.83
2023-02-08T15:48:09.352Z,49.90
2023-02-08T15:50:41.253Z,48.70
2023-02-08T15:53:18.598Z,49.13
2023-02-08T15:56:06.499Z,45.95
2023-02-08T15:58:44.541Z,45.17
2023-02-08T16:01:20.297Z,45.55
2023-02-08T16:03:55.191Z,41.95
2023-02-08T16:06:29.260Z,43.15
2023-02-08T16:09:02.782Z,39.60
2023-02-08T16:11:35.731Z,45.13
2023-02-08T16:14:05.161Z,40.60
2023-02-08T16:16:43.828Z,41.80
2023-02-08T16:19:32.316Z,39.88
2023-02-08T16:22:25.784Z,46.55
2023-02-08T16:24:53.124Z,43.45
2023-02-08T16:27:20.077Z,41.63
2023-02-08T16:29:48.170Z,44.25
2023-02-08T16:32:34.779Z,39.67
2023-02-08T16:35:15.954Z,36.47
2023-02-08T16:37:43.161Z,43.75
2023-02-08T16:40:44.311Z,39.78
2023-02-08T16:43:27.070Z,40.67
2023-02-08T16:46:17.137Z,35.43
2023-02-08T16:48:54.371Z,42.33
2023-02-08T16:51:27.811Z,35.60
2023-02-08T16:56:29.898Z,42.45
2023-02-08T16:58:57.085Z,40.28
2023-02-08T17:01:24.657Z,40.17
2023-02-08T17:03:53.183Z,46.47
2023-02-08T17:06:29.848Z,35.83
2023-02-08T17:09:01.548Z,41.30
2023-02-08T17:11:29.803Z,37.95
2023-02-08T17:13:58.814Z,42.03
2023-02-08T17:16:28.749Z,38.00
2023-02-08T17:18:57.202Z,37.45
2023-02-08T17:21:24.384Z,37.75
2023-02-08T17:23:51.591Z,46.00
2023-02-08T17:26:27.830Z,48.72
2023-02-08T17:28:59.363Z,50.55
2023-02-08T17:31:29.301Z,47.25
2023-02-08T17:34:04.196Z,51.42
2023-02-08T17:36:33.163Z,73.15
2023-02-08T17:39:00.965Z,50.28
2023-02-08T17:41:28.638Z,60.42
2023-02-08T17:43:57.877Z,57.78
2023-02-08T17:46:27.406Z,64.40
2023-02-08T17:48:54.667Z,65.78
2023-02-08T17:51:24.357Z,71.25
2023-02-08T17:53:51.924Z,57.05
2023-02-08T17:56:25.150Z,59.05
2023-02-08T17:58:54.013Z,55.38
2023-02-08T18:01:27.053Z,61.35
2023-02-08T18:03:55.209Z,41.03
2023-02-08T18:06:25.105Z,60.92
2023-02-08T18:08:53.904Z,58.70
2023-02-08T18:11:21.599Z,56.97
2023-02-08T18:13:50.243Z,48.88
2023-02-08T18:16:23.827Z,49.40
2023-02-08T18:18:51.108Z,49.95
2023-02-08T18:21:21.111Z,49.78
2023-02-08T18:23:50.167Z,43.67
2023-02-08T18:26:20.083Z,52.38
2023-02-08T18:28:47.587Z,54.72
2023-02-08T18:31:17.153Z,49.47
2023-02-08T18:33:44.443Z,49.17
2023-02-08T18:36:12.545Z,50.95
2023-02-08T18:38:40.627Z,46.50
2023-02-08T18:41:09.633Z,53.97
2023-02-08T18:43:38.360Z,48.13
2023-02-08T18:46:10.049Z,47.85
2023-02-08T18:48:39.005Z,44.83
2023-02-08T18:51:07.613Z,58.95
2023-02-08T18:53:42.179Z,47.83
2023-02-08T18:56:12.112Z,53.42
2023-02-08T18:58:40.925Z,49.78
2023-02-08T19:01:18.190Z,56.08
2023-02-08T19:03:46.009Z,50.88
2023-02-08T19:06:16.887Z,53.13
2023-02-08T19:08:45.669Z,55.58
2023-02-08T19:11:21.653Z,52.65
2023-02-08T19:13:50.290Z,57.65
2023-02-08T19:16:18.545Z,59.50
2023-02-08T19:18:46.584Z,53.88
2023-02-08T19:21:15.749Z,53.53
2023-02-08T19:23:43.381Z,53.67
2023-02-08T19:26:17.822Z,58.63
2023-02-08T19:28:45.253Z,62.92
2023-02-08T19:31:15.320Z,60.88
2023-02-08T19:33:45.410Z,67.57
2023-02-08T19:36:18.683Z,58.42
2023-02-08T19:38:46.524Z,59.33
2023-02-08T19:41:25.984Z,56.90
2023-02-08T19:43:53.618Z,50.63
2023-02-08T19:46:23.466Z,64.85
2023-02-08T19:48:52.834Z,56.38
2023-02-08T19:51:20.722Z,59.05
2023-02-08T19:53:48.300Z,63.40
2023-02-08T19:56:17.636Z,62.15
2023-02-08T19:58:46.645Z,61.08
2023-02-08T20:01:19.171Z,60.78
2023-02-08T20:03:47.188Z,70.32
2023-02-08T20:06:26.056Z,56.65
2023-02-08T20:08:53.955Z,60.28
2023-02-08T20:11:27.167Z,58.80
2023-02-08T20:13:56.718Z,61.83
2023-02-08T20:16:24.235Z,64.90
2023-02-08T20:18:51.441Z,66.20
2023-02-08T20:21:18.949Z,68.05
2023-02-08T20:23:47.028Z,59.60
2023-02-08T20:26:17.567Z,63.88
2023-02-08T20:28:48.067Z,69.43
2023-02-08T20:31:18.082Z,80.40
2023-02-08T20:33:45.577Z,70.85
2023-02-08T20:36:18.152Z,71.18
2023-02-08T20:38:46.954Z,70.95
2023-02-08T20:41:15.920Z,76.15
2023-02-08T20:43:44.973Z,78.85
2023-02-08T20:46:22.498Z,85.18
2023-02-08T20:48:50.313Z,95.82
2023-02-08T20:51:20.677Z,93.80
2023-02-08T20:53:49.688Z,87.43
2023-02-08T20:56:20.546Z,82.47
2023-02-08T20:58:48.973Z,89.82
2023-02-08T21:01:22.637Z,78.07
2023-02-08T21:03:51.212Z,79.05
2023-02-08T21:06:22.234Z,80.93
2023-02-08T21:08:56.044Z,75.45
2023-02-08T21:11:26.868Z,78.35
2023-02-08T21:13:55.330Z,85.53
2023-02-08T21:16:24.139Z,78.10
2023-02-08T21:18:58.046Z,81.30
2023-02-08T21:21:26.775Z,81.28
2023-02-08T21:23:58.586Z,78.57
2023-02-08T21:26:52.124Z,73.88
2023-02-08T21:29:27.432Z,73.75
2023-02-08T21:32:10.239Z,82.93
2023-02-08T21:34:42.990Z,87.45
2023-02-08T21:37:14.028Z,75.90
2023-02-08T21:39:47.248Z,77.88
2023-02-08T21:42:15.890Z,80.10
2023-02-08T21:44:44.094Z,78.97
2023-02-08T21:47:11.869Z,76.32
2023-02-08T21:49:57.901Z,76.05
2023-02-08T21:52:54.860Z,75.95
2023-02-08T21:55:21.984Z,75.40
2023-02-08T21:57:48.971Z,68.47
2023-02-08T22:00:16.217Z,80.57
2023-02-08T22:02:43.791Z,73.10
2023-02-08T22:05:29.924Z,74.40
2023-02-08T22:07:58.074Z,76.55
2023-02-08T22:10:27.630Z,66.63
2023-02-08T22:12:55.809Z,74.53
2023-02-08T22:15:25.807Z,68.57
2023-02-08T22:17:58.062Z,77.20
2023-02-08T22:20:26.079Z,68.65
2023-02-08T22:22:55.248Z,70.72
2023-02-08T22:25:23.799Z,76.15
2023-02-08T22:27:50.934Z,75.68
2023-02-08T22:30:19.431Z,74.32
2023-02-08T22:32:48.522Z,66.55
2023-02-08T22:35:17.318Z,73.45
2023-02-08T22:37:45.060Z,76.40
2023-02-08T22:40:12.994Z,72.82
2023-02-08T22:42:41.405Z,71.25
2023-02-08T22:45:09.180Z,70.53
2023-02-08T22:47:36.431Z,75.88
2023-02-08T22:50:04.647Z,73.72
2023-02-08T22:52:34.653Z,76.65
2023-02-08T22:55:04.243Z,75.53
2023-02-08T22:57:32.644Z,75.80
2023-02-08T23:00:00.084Z,74.65
2023-02-08T23:02:27.440Z,69.07
2023-02-08T23:04:54.557Z,77.20
2023-02-08T23:07:21.670Z,75.03
2023-02-08T23:09:48.839Z,77.15
2023-02-08T23:12:16.027Z,77.80
2023-02-08T23:14:43.543Z,80.35
2023-02-08T23:17:11.719Z,84.20
2023-02-08T23:19:40.493Z,90.05
2023-02-08T23:22:07.780Z,75.05
2023-02-08T23:24:34.902Z,85.35
2023-02-08T23:27:01.994Z,82.25
2023-02-08T23:29:29.206Z,76.75
2023-02-08T23:31:56.305Z,73.63
2023-02-08T23:34:23.430Z,78.15
2023-02-08T23:36:50.625Z,76.90
2023-02-08T23:39:17.609Z,78.38
2023-02-08T23:41:44.694Z,82.30
2023-02-08T23:44:11.949Z,72.00
2023-02-08T23:46:39.045Z,72.22
2023-02-08T23:49:06.119Z,66.53
2023-02-08T23:51:33.301Z,69.35
2023-02-08T23:54:00.302Z,70.18
2023-02-08T23:56:29.557Z,75.82
2023-02-08T23:58:59.112Z,78.07
